createdAt,value
2019-04-04T00:01:29.863Z,6.30
2019-04-04T00:03:58.493Z,6.77
2019-04-04T00:06:27.730Z,5.70
2019-04-04T00:08:56.427Z,5.63
2019-04-04T00:11:25.035Z,5.17
2019-04-04T00:13:53.631Z,4.77
2019-04-04T00:16:22.229Z,4.70
2019-04-04T00:18:50.838Z,4.83
2019-04-04T00:21:19.437Z,4.63
2019-04-04T00:23:48.122Z,4.43
2019-04-04T00:26:16.724Z,4.40
2019-04-04T00:28:46.100Z,4.57
2019-04-04T00:31:15.169Z,4.43
2019-04-04T00:33:43.769Z,4.20
2019-04-04T00:36:12.395Z,4.60
2019-04-04T00:38:40.933Z,4.93
2019-04-04T00:41:11.028Z,4.30
2019-04-04T00:43:39.751Z,4.53
2019-04-04T00:46:08.342Z,4.50
2019-04-04T00:48:36.897Z,4.60
2019-04-04T00:51:07.729Z,4.70
2019-04-04T00:53:35.711Z,4.47
2019-04-04T00:56:04.720Z,4.10
2019-04-04T00:58:33.255Z,4.30
2019-04-04T01:01:01.847Z,3.90
2019-04-04T01:03:30.740Z,4.10
2019-04-04T01:06:02.681Z,3.73
2019-04-04T01:08:29.568Z,3.70
2019-04-04T01:10:58.117Z,3.70
2019-04-04T01:13:27.650Z,3.70
2019-04-04T01:15:56.362Z,3.37
2019-04-04T01:18:24.968Z,3.60
2019-04-04T01:20:53.564Z,3.10
2019-04-04T01:23:22.154Z,3.50
2019-04-04T01:25:50.791Z,3.70
2019-04-04T01:28:19.377Z,4.00
2019-04-04T01:30:47.949Z,3.70
2019-04-04T01:33:19.680Z,3.37
2019-04-04T01:35:46.845Z,3.37
2019-04-04T01:38:15.383Z,3.70
2019-04-04T01:40:43.944Z,3.27
2019-04-04T01:43:12.482Z,3.47
2019-04-04T01:45:43.849Z,3.77
2019-04-04T01:48:11.380Z,3.97
2019-04-04T01:50:39.945Z,4.40
2019-04-04T01:53:08.568Z,4.50
2019-04-04T01:55:37.354Z,4.50
2019-04-04T01:58:05.984Z,4.93
2019-04-04T02:00:34.598Z,4.70
2019-04-04T02:03:03.204Z,4.10
2019-04-04T02:05:31.891Z,4.87
2019-04-04T02:08:01.008Z,5.13
2019-04-04T02:10:30.252Z,4.80
2019-04-04T02:12:58.835Z,5.10
2019-04-04T02:15:27.414Z,4.37
2019-04-04T02:17:56.032Z,3.80
2019-04-04T02:20:25.028Z,4.00
2019-04-04T02:22:54.909Z,3.60
2019-04-04T02:25:23.548Z,3.90
2019-04-04T02:27:52.136Z,3.80
2019-04-04T02:30:20.800Z,3.60
2019-04-04T02:32:49.380Z,3.03
2019-04-04T02:35:17.988Z,3.20
2019-04-04T02:37:46.600Z,2.97
2019-04-04T02:40:15.293Z,3.10
2019-04-04T02:42:43.897Z,2.80
2019-04-04T02:45:12.477Z,3.00
2019-04-04T02:47:41.054Z,2.57
2019-04-04T02:50:09.874Z,2.90
2019-04-04T02:52:38.445Z,2.90
2019-04-04T02:55:07.026Z,2.83
2019-04-04T02:57:35.683Z,2.73
2019-04-04T03:00:04.918Z,2.80
2019-04-04T03:02:36.157Z,2.80
2019-04-04T03:05:04.105Z,2.87
2019-04-04T03:07:32.719Z,2.60
2019-04-04T03:10:01.317Z,3.07
2019-04-04T03:12:30.004Z,2.50
2019-04-04T03:14:58.579Z,2.70
2019-04-04T03:17:31.702Z,2.70
2019-04-04T03:19:57.610Z,2.47
2019-04-04T03:22:27.484Z,2.40
2019-04-04T03:24:56.482Z,2.53
2019-04-04T03:27:26.780Z,2.53
2019-04-04T03:29:55.715Z,2.40
2019-04-04T03:32:24.304Z,3.00
2019-04-04T03:34:52.889Z,2.67
2019-04-04T03:37:21.495Z,2.63
2019-04-04T03:39:52.926Z,2.57
2019-04-04T03:42:20.459Z,2.90
2019-04-04T03:44:52.895Z,3.33
2019-04-04T03:47:19.377Z,3.57
2019-04-04T03:49:48.038Z,4.43
2019-04-04T03:52:16.692Z,4.93
2019-04-04T03:54:45.362Z,5.67
2019-04-04T03:57:13.941Z,5.93
2019-04-04T03:59:42.530Z,5.83
2019-04-04T04:02:11.140Z,5.07
2019-04-04T04:04:39.791Z,5.47
2019-04-04T04:07:08.362Z,5.10
2019-04-04T04:09:36.957Z,5.27
2019-04-04T04:12:10.072Z,5.40
2019-04-04T04:14:37.778Z,5.30
2019-04-04T04:17:09.061Z,5.80
2019-04-04T04:19:37.916Z,5.40
2019-04-04T04:22:06.694Z,5.27
2019-04-04T04:24:35.306Z,5.63
2019-04-04T04:27:03.950Z,5.60
2019-04-04T04:29:32.593Z,5.17
2019-04-04T04:32:01.152Z,5.17
2019-04-04T04:34:33.027Z,4.70
2019-04-04T04:37:00.032Z,4.43
2019-04-04T04:39:28.692Z,4.50
2019-04-04T04:41:57.301Z,4.07
2019-04-04T04:44:25.873Z,3.33
2019-04-04T04:46:54.501Z,3.80
2019-04-04T04:49:23.479Z,3.70
2019-04-04T04:51:52.119Z,9.67
2019-04-04T04:54:22.841Z,12.83
2019-04-04T04:56:51.000Z,6.10
2019-04-04T04:59:19.582Z,4.67
2019-04-04T05:01:50.103Z,3.97
2019-04-04T05:04:18.473Z,4.00
2019-04-04T05:06:47.060Z,3.40
2019-04-04T05:09:15.658Z,3.23
2019-04-04T05:11:44.286Z,3.17
2019-04-04T05:14:12.937Z,3.47
2019-04-04T05:16:41.546Z,3.20
2019-04-04T05:19:10.216Z,3.37
2019-04-04T05:21:38.835Z,3.00
2019-04-04T05:24:07.693Z,2.50
2019-04-04T05:26:38.543Z,2.50
2019-04-04T05:29:06.629Z,2.57
2019-04-04T05:31:35.240Z,2.60
2019-04-04T05:34:03.883Z,2.20
2019-04-04T05:36:36.043Z,2.27
2019-04-04T05:39:03.983Z,2.20
2019-04-04T05:41:32.556Z,2.40
2019-04-04T05:44:01.136Z,2.60
2019-04-04T05:46:29.742Z,2.37
2019-04-04T05:49:00.962Z,2.50
2019-04-04T05:51:28.656Z,2.93
2019-04-04T05:53:57.332Z,3.13
2019-04-04T05:56:25.904Z,3.70
2019-04-04T05:58:54.520Z,3.93
2019-04-04T06:01:23.279Z,3.93
2019-04-04T06:03:51.851Z,3.57
2019-04-04T06:06:20.427Z,5.50
2019-04-04T06:08:49.063Z,5.67
2019-04-04T06:11:20.888Z,5.13
2019-04-04T06:13:47.929Z,4.90
2019-04-04T06:16:16.652Z,5.33
2019-04-04T06:18:45.247Z,4.43
2019-04-04T06:21:13.806Z,5.07
2019-04-04T06:23:42.446Z,4.93
2019-04-04T06:26:11.045Z,4.87
2019-04-04T06:28:39.889Z,4.80
2019-04-04T06:31:08.492Z,5.30
2019-04-04T06:33:37.077Z,5.63
2019-04-04T06:36:05.735Z,4.70
2019-04-04T06:38:34.327Z,4.97
2019-04-04T06:41:03.249Z,4.73
2019-04-04T06:43:31.866Z,4.30
2019-04-04T06:46:00.672Z,4.80
2019-04-04T06:48:30.752Z,5.13
2019-04-04T06:50:59.614Z,4.97
2019-04-04T06:53:28.197Z,5.20
2019-04-04T06:55:58.137Z,5.23
2019-04-04T06:58:27.251Z,5.17
2019-04-04T07:00:55.865Z,5.03
2019-04-04T07:03:27.055Z,5.33
2019-04-04T07:05:54.764Z,5.37
2019-04-04T07:08:23.486Z,5.73
2019-04-04T07:10:57.814Z,4.60
2019-04-04T07:13:26.870Z,4.63
2019-04-04T07:16:06.317Z,3.70
2019-04-04T07:18:22.917Z,3.50
2019-04-04T07:20:51.492Z,2.77
2019-04-04T07:23:20.100Z,2.90
2019-04-04T07:25:48.681Z,2.90
2019-04-04T07:28:19.070Z,2.40
2019-04-04T07:30:47.548Z,2.57
2019-04-04T07:33:16.153Z,2.50
2019-04-04T07:35:44.732Z,2.50
2019-04-04T07:38:13.318Z,3.20
2019-04-04T07:40:41.952Z,4.00
2019-04-04T07:43:10.587Z,4.17
2019-04-04T07:45:39.176Z,5.27
2019-04-04T07:48:07.780Z,4.93
2019-04-04T07:50:36.362Z,3.90
2019-04-04T07:53:05.305Z,3.23
2019-04-04T07:55:34.119Z,3.10
2019-04-04T07:58:02.712Z,2.90
2019-04-04T08:00:31.318Z,3.47
2019-04-04T08:03:00.021Z,3.53
2019-04-04T08:05:28.718Z,3.27
2019-04-04T08:07:57.292Z,3.80
2019-04-04T08:10:25.911Z,3.90
2019-04-04T08:12:54.475Z,3.40
2019-04-04T08:15:23.054Z,3.70
2019-04-04T08:17:51.671Z,3.90
2019-04-04T08:20:20.278Z,4.40
2019-04-04T08:22:48.919Z,4.40
2019-04-04T08:25:17.587Z,3.70
2019-04-04T08:27:46.155Z,3.53
2019-04-04T08:30:15.156Z,3.27
2019-04-04T08:32:43.768Z,3.07
2019-04-04T08:35:12.613Z,3.10
2019-04-04T08:37:41.185Z,3.10
2019-04-04T08:40:09.952Z,3.47
2019-04-04T08:42:38.570Z,3.00
2019-04-04T08:45:07.284Z,3.17
2019-04-04T08:47:35.956Z,3.07
2019-04-04T08:50:04.722Z,3.00
2019-04-04T08:52:33.315Z,3.07
2019-04-04T08:55:01.964Z,2.67
2019-04-04T08:57:30.607Z,2.13
2019-04-04T08:59:59.171Z,2.50
2019-04-04T09:02:27.769Z,2.77
2019-04-04T09:04:56.407Z,3.67
2019-04-04T09:07:24.988Z,3.37
2019-04-04T09:09:53.691Z,3.47
2019-04-04T09:12:22.385Z,3.60
2019-04-04T09:14:50.975Z,4.17
2019-04-04T09:17:19.619Z,3.90
2019-04-04T09:19:48.210Z,3.63
2019-04-04T09:22:16.812Z,3.30
2019-04-04T09:24:45.475Z,3.20
2019-04-04T09:27:14.051Z,2.77
2019-04-04T09:29:42.774Z,2.97
2019-04-04T09:32:11.396Z,3.77
2019-04-04T09:34:39.973Z,3.20
2019-04-04T09:37:08.950Z,3.43
2019-04-04T09:39:37.695Z,3.60
2019-04-04T09:42:06.279Z,3.20
2019-04-04T09:44:34.875Z,2.90
2019-04-04T09:47:05.538Z,3.00
2019-04-04T09:49:33.733Z,2.90
2019-04-04T09:52:02.357Z,3.03
2019-04-04T09:54:30.923Z,3.90
2019-04-04T09:56:59.518Z,3.50
2019-04-04T09:59:28.108Z,3.20
2019-04-04T10:01:56.777Z,3.00
2019-04-04T10:04:25.435Z,2.77
2019-04-04T10:06:54.005Z,2.97
2019-04-04T10:09:22.579Z,2.80
2019-04-04T10:11:51.183Z,2.80
2019-04-04T10:14:19.767Z,2.80
2019-04-04T10:16:48.350Z,2.67
2019-04-04T10:19:16.939Z,2.90
2019-04-04T10:21:45.605Z,2.73
2019-04-04T10:24:14.215Z,2.60
2019-04-04T10:26:42.807Z,2.47
2019-04-04T10:29:11.372Z,2.10
2019-04-04T10:31:39.997Z,1.93
2019-04-04T10:34:08.599Z,2.23
2019-04-04T10:36:37.188Z,2.20
2019-04-04T10:39:07.823Z,1.90
2019-04-04T10:41:36.491Z,1.90
2019-04-04T10:44:05.059Z,2.30
2019-04-04T10:46:33.687Z,2.20
2019-04-04T10:49:02.274Z,2.13
2019-04-04T10:51:30.855Z,2.37
2019-04-04T10:53:59.454Z,2.03
2019-04-04T10:56:28.025Z,2.50
2019-04-04T10:58:56.611Z,2.80
2019-04-04T11:01:25.430Z,2.80
2019-04-04T11:03:54.079Z,2.50
2019-04-04T11:06:22.937Z,2.30
2019-04-04T11:08:51.575Z,2.10
2019-04-04T11:11:20.268Z,2.30
2019-04-04T11:13:48.852Z,2.17
2019-04-04T11:16:29.491Z,2.20
2019-04-04T11:18:47.721Z,2.20
2019-04-04T11:21:16.363Z,2.40
2019-04-04T11:23:44.943Z,2.30
2019-04-04T11:26:13.528Z,2.13
2019-04-04T11:28:42.151Z,2.10
2019-04-04T11:31:10.731Z,2.27
2019-04-04T11:33:39.355Z,2.40
2019-04-04T11:36:08.045Z,2.37
2019-04-04T11:38:36.874Z,2.20
2019-04-04T11:41:05.441Z,2.43
2019-04-04T11:43:34.061Z,2.00
2019-04-04T11:46:02.656Z,2.37
2019-04-04T11:48:31.249Z,2.50
2019-04-04T11:51:00.162Z,2.17
2019-04-04T11:53:28.811Z,2.57
2019-04-04T11:55:57.397Z,2.20
2019-04-04T11:58:26.045Z,2.90
2019-04-04T12:00:55.943Z,4.30
2019-04-04T12:03:24.583Z,2.70
2019-04-04T12:05:53.200Z,2.00
2019-04-04T12:08:21.881Z,10.33
2019-04-04T12:10:50.492Z,2.00
2019-04-04T12:13:19.141Z,2.10
2019-04-04T12:15:47.727Z,2.10
2019-04-04T12:18:16.345Z,2.27
2019-04-04T12:20:44.914Z,1.90
2019-04-04T12:23:13.501Z,1.80
2019-04-04T12:25:42.132Z,1.70
2019-04-04T12:28:10.709Z,2.70
2019-04-04T12:30:39.292Z,2.20
2019-04-04T12:33:07.899Z,1.80
2019-04-04T12:35:36.519Z,1.90
2019-04-04T12:38:05.130Z,2.20
2019-04-04T12:40:33.743Z,2.23
2019-04-04T12:43:02.333Z,2.00
2019-04-04T12:45:30.922Z,1.90
2019-04-04T12:47:59.524Z,1.77
2019-04-04T12:50:28.114Z,1.90
2019-04-04T12:52:56.841Z,2.00
2019-04-04T12:55:25.440Z,1.90
2019-04-04T12:57:54.069Z,1.90
2019-04-04T13:00:22.679Z,1.80
2019-04-04T13:02:51.284Z,1.90
2019-04-04T13:05:19.900Z,1.83
2019-04-04T13:07:48.493Z,1.70
2019-04-04T13:10:17.313Z,2.00
2019-04-04T13:12:45.924Z,2.03
2019-04-04T13:15:14.720Z,1.93
2019-04-04T13:17:43.327Z,1.80
2019-04-04T13:20:12.116Z,1.90
2019-04-04T13:22:40.709Z,2.13
2019-04-04T13:25:09.430Z,3.73
2019-04-04T13:27:38.034Z,5.60
2019-04-04T13:30:07.585Z,11.73
2019-04-04T13:32:36.283Z,45.17
2019-04-04T13:35:05.886Z,17.63
2019-04-04T13:37:34.659Z,5.70
2019-04-04T13:40:03.308Z,11.20
2019-04-04T13:42:31.890Z,17.13
2019-04-04T13:45:00.510Z,9.23
2019-04-04T13:47:29.168Z,2.77
2019-04-04T13:49:57.805Z,1.50
2019-04-04T13:52:27.069Z,1.50
2019-04-04T13:54:56.382Z,1.20
2019-04-04T13:57:25.082Z,1.40
2019-04-04T13:59:53.747Z,1.30
2019-04-04T14:02:22.452Z,1.53
2019-04-04T14:04:55.049Z,1.10
2019-04-04T14:07:21.353Z,1.10
2019-04-04T14:09:50.096Z,0.90
2019-04-04T14:12:18.660Z,0.80
2019-04-04T14:14:47.246Z,0.80
2019-04-04T14:17:15.831Z,0.73
2019-04-04T14:19:44.406Z,0.90
2019-04-04T14:22:12.994Z,1.00
2019-04-04T14:24:41.612Z,0.90
2019-04-04T14:27:10.209Z,1.30
2019-04-04T14:29:38.788Z,1.53
2019-04-04T14:32:07.403Z,2.50
2019-04-04T14:34:35.987Z,2.80
2019-04-04T14:37:04.627Z,2.40
2019-04-04T14:39:33.252Z,2.60
2019-04-04T14:42:01.844Z,2.60
2019-04-04T14:44:30.794Z,2.30
2019-04-04T14:46:59.461Z,2.40
2019-04-04T14:49:28.060Z,2.53
2019-04-04T14:51:56.675Z,2.50
2019-04-04T14:54:28.978Z,2.00
2019-04-04T14:56:55.734Z,3.00
2019-04-04T14:59:24.343Z,2.97
2019-04-04T15:01:53.257Z,2.53
2019-04-04T15:04:21.917Z,3.20
2019-04-04T15:06:50.569Z,3.80
2019-04-04T15:09:19.151Z,3.30
2019-04-04T15:11:47.790Z,3.43
2019-04-04T15:14:16.362Z,3.00
2019-04-04T15:16:44.927Z,3.70
2019-04-04T15:19:13.640Z,3.40
2019-04-04T15:21:42.224Z,3.37
2019-04-04T15:24:10.883Z,2.90
2019-04-04T15:26:39.508Z,2.00
2019-04-04T15:29:08.114Z,3.07
2019-04-04T15:31:36.700Z,3.70
2019-04-04T15:34:05.390Z,4.30
2019-04-04T15:36:33.976Z,3.80
2019-04-04T15:39:02.596Z,4.30
2019-04-04T15:41:37.240Z,4.80
2019-04-04T15:44:01.560Z,5.83
2019-04-04T15:46:30.366Z,4.07
2019-04-04T15:48:58.966Z,4.73
2019-04-04T15:51:27.594Z,4.40
2019-04-04T15:53:56.297Z,5.43
2019-04-04T15:56:24.889Z,4.30
2019-04-04T15:58:53.449Z,5.10
2019-04-04T16:01:22.086Z,4.90
2019-04-04T16:03:51.010Z,5.73
2019-04-04T16:06:19.588Z,6.40
2019-04-04T16:08:48.166Z,6.50
2019-04-04T16:11:16.766Z,5.87
2019-04-04T16:13:45.332Z,5.50
2019-04-04T16:16:13.903Z,5.80
2019-04-04T16:18:42.495Z,7.10
2019-04-04T16:21:11.089Z,6.60
2019-04-04T16:23:39.835Z,6.03
2019-04-04T16:26:08.424Z,6.00
2019-04-04T16:28:36.992Z,5.60
2019-04-04T16:31:05.636Z,6.17
2019-04-04T16:33:34.203Z,6.60
2019-04-04T16:36:05.329Z,5.93
2019-04-04T16:38:33.090Z,5.27
2019-04-04T16:41:01.675Z,5.60
2019-04-04T16:43:30.235Z,5.67
2019-04-04T16:45:58.901Z,5.80
2019-04-04T16:48:27.484Z,5.93
2019-04-04T16:50:56.120Z,6.40
2019-04-04T16:53:24.709Z,5.93
2019-04-04T16:55:53.301Z,6.87
2019-04-04T16:58:21.886Z,7.67
2019-04-04T17:00:50.463Z,6.33
2019-04-04T17:03:19.068Z,5.50
2019-04-04T17:05:47.704Z,6.63
2019-04-04T17:08:16.300Z,6.37
2019-04-04T17:10:45.009Z,6.00
2019-04-04T17:13:13.630Z,5.93
2019-04-04T17:15:42.224Z,6.40
2019-04-04T17:18:10.900Z,6.77
2019-04-04T17:20:39.513Z,6.80
2019-04-04T17:23:08.087Z,6.13
2019-04-04T17:25:36.677Z,7.57
2019-04-04T17:28:05.514Z,7.77
2019-04-04T17:30:34.559Z,6.93
2019-04-04T17:33:03.503Z,7.20
2019-04-04T17:35:32.101Z,6.83
2019-04-04T17:38:00.681Z,8.10
2019-04-04T17:40:29.268Z,7.87
2019-04-04T17:42:57.883Z,7.10
2019-04-04T17:45:26.568Z,7.30
2019-04-04T17:47:55.702Z,7.73
2019-04-04T17:50:24.351Z,7.10
2019-04-04T17:52:52.978Z,7.10
2019-04-04T17:55:21.909Z,7.13
2019-04-04T17:57:50.994Z,7.57
2019-04-04T18:00:20.924Z,7.30
2019-04-04T18:02:50.694Z,7.37
2019-04-04T18:05:19.296Z,7.90
2019-04-04T18:07:47.874Z,7.30
2019-04-04T18:10:16.562Z,8.53
2019-04-04T18:12:45.196Z,8.43
2019-04-04T18:15:13.778Z,8.40
2019-04-04T18:17:42.453Z,8.07
2019-04-04T18:20:11.466Z,9.50
2019-04-04T18:22:40.051Z,9.37
2019-04-04T18:25:08.777Z,8.97
2019-04-04T18:27:37.413Z,9.03
2019-04-04T18:30:07.198Z,8.70
2019-04-04T18:32:35.778Z,8.43
2019-04-04T18:35:04.860Z,9.10
2019-04-04T18:37:33.472Z,9.23
2019-04-04T18:40:02.086Z,10.13
2019-04-04T18:42:31.216Z,10.53
2019-04-04T18:44:59.869Z,10.97
2019-04-04T18:47:28.467Z,10.53
2019-04-04T18:49:57.077Z,11.00
2019-04-04T18:52:25.725Z,12.13
2019-04-04T18:54:54.325Z,12.03
2019-04-04T18:57:22.935Z,13.00
2019-04-04T18:59:51.612Z,13.10
2019-04-04T19:02:20.250Z,13.67
2019-04-04T19:04:48.832Z,14.40
2019-04-04T19:07:17.477Z,14.37
2019-04-04T19:09:46.080Z,15.07
2019-04-04T19:12:14.673Z,15.27
2019-04-04T19:14:43.297Z,16.07
2019-04-04T19:17:11.937Z,16.30
2019-04-04T19:19:40.518Z,17.57
2019-04-04T19:22:09.117Z,16.23
2019-04-04T19:24:37.808Z,17.33
2019-04-04T19:27:06.399Z,17.53
2019-04-04T19:29:34.995Z,17.27
2019-04-04T19:32:03.587Z,16.70
2019-04-04T19:34:32.219Z,17.37
2019-04-04T19:37:00.867Z,17.97
2019-04-04T19:39:29.463Z,16.30
2019-04-04T19:41:58.054Z,16.63
2019-04-04T19:44:26.767Z,16.27
2019-04-04T19:46:55.369Z,17.57
2019-04-04T19:49:23.955Z,16.53
2019-04-04T19:51:52.581Z,16.60
2019-04-04T19:54:21.176Z,17.03
2019-04-04T19:56:49.835Z,17.53
2019-04-04T19:59:18.557Z,17.17
2019-04-04T20:01:47.141Z,17.17
2019-04-04T20:04:15.801Z,17.47
2019-04-04T20:06:44.431Z,17.87
2019-04-04T20:09:12.999Z,16.53
2019-04-04T20:11:41.614Z,17.27
2019-04-04T20:14:10.195Z,17.47
2019-04-04T20:16:38.795Z,15.60
2019-04-04T20:19:07.427Z,16.07
2019-04-04T20:21:36.016Z,15.60
2019-04-04T20:24:04.791Z,15.83
2019-04-04T20:26:33.413Z,15.23
2019-04-04T20:29:02.009Z,17.33
2019-04-04T20:31:30.623Z,15.83
2019-04-04T20:34:01.856Z,17.00
2019-04-04T20:36:29.519Z,16.77
2019-04-04T20:38:58.124Z,16.60
2019-04-04T20:41:26.707Z,17.07
2019-04-04T20:43:55.327Z,17.57
2019-04-04T20:46:23.921Z,16.50
2019-04-04T20:48:52.507Z,17.07
2019-04-04T20:51:21.119Z,16.90
2019-04-04T20:53:49.719Z,17.20
2019-04-04T20:56:18.306Z,18.37
2019-04-04T20:58:47.001Z,18.37
2019-04-04T21:01:15.588Z,18.30
2019-04-04T21:03:44.195Z,19.07
2019-04-04T21:06:12.842Z,19.07
2019-04-04T21:08:41.427Z,18.57
2019-04-04T21:11:10.013Z,20.13
2019-04-04T21:13:38.641Z,20.43
2019-04-04T21:16:07.223Z,21.37
2019-04-04T21:18:35.799Z,21.53
2019-04-04T21:21:04.407Z,23.57
2019-04-04T21:23:33.007Z,24.27
2019-04-04T21:26:01.616Z,21.47
2019-04-04T21:28:30.223Z,20.30
2019-04-04T21:30:58.817Z,23.53
2019-04-04T21:33:27.397Z,21.57
2019-04-04T21:35:56.037Z,20.47
2019-04-04T21:38:24.634Z,21.70
2019-04-04T21:40:53.229Z,20.53
2019-04-04T21:43:23.623Z,21.50
2019-04-04T21:45:52.243Z,20.17
2019-04-04T21:48:20.846Z,21.73
2019-04-04T21:50:49.433Z,20.90
2019-04-04T21:53:18.069Z,20.33
2019-04-04T21:55:46.660Z,18.63
2019-04-04T21:58:15.247Z,21.37
2019-04-04T22:00:45.211Z,22.23
2019-04-04T22:03:13.802Z,20.60
2019-04-04T22:05:42.439Z,19.60
2019-04-04T22:08:11.075Z,18.23
2019-04-04T22:10:39.671Z,21.33
2019-04-04T22:13:08.263Z,19.23
2019-04-04T22:15:36.868Z,21.67
2019-04-04T22:18:05.478Z,18.70
2019-04-04T22:20:34.133Z,19.70
2019-04-04T22:23:02.819Z,18.43
2019-04-04T22:25:31.456Z,18.97
2019-04-04T22:28:00.163Z,18.53
2019-04-04T22:30:28.793Z,17.50
2019-04-04T22:32:57.386Z,19.03
2019-04-04T22:35:25.973Z,19.53
2019-04-04T22:37:54.591Z,19.97
2019-04-04T22:40:23.275Z,18.17
2019-04-04T22:42:51.871Z,18.93
2019-04-04T22:45:20.498Z,18.63
2019-04-04T22:47:49.071Z,18.83
2019-04-04T22:50:17.652Z,20.47
2019-04-04T22:52:46.442Z,22.90
2019-04-04T22:55:15.023Z,21.17
2019-04-04T22:57:43.648Z,19.93
2019-04-04T23:00:13.931Z,18.63
2019-04-04T23:02:42.515Z,23.63
2019-04-04T23:05:11.235Z,22.60
2019-04-04T23:07:39.922Z,21.10
2019-04-04T23:10:08.622Z,20.23
2019-04-04T23:12:37.320Z,21.17
2019-04-04T23:15:06.528Z,21.53
2019-04-04T23:17:35.135Z,20.07
2019-04-04T23:20:04.070Z,20.30
2019-04-04T23:22:32.669Z,20.17
2019-04-04T23:25:01.565Z,20.23
2019-04-04T23:27:30.162Z,18.50
2019-04-04T23:29:59.062Z,18.97
2019-04-04T23:32:27.653Z,22.17
2019-04-04T23:34:56.340Z,21.07
2019-04-04T23:37:24.947Z,22.70
2019-04-04T23:39:53.565Z,20.80
2019-04-04T23:42:22.161Z,22.43
2019-04-04T23:45:00.389Z,24.50
2019-04-04T23:47:21.082Z,23.20
2019-04-04T23:49:49.665Z,22.00
2019-04-04T23:52:18.256Z,23.33
2019-04-04T23:54:46.880Z,22.70
2019-04-04T23:57:15.505Z,22.93
2019-04-04T23:59:44.085Z,23.63
